Time;durP1;ratioP1;P1;durP2;ratioP2;P2;SDS_P1;SDS_P2;PMS_P1;PMS_P2;Temp;Humidity;BMP_temperature;BMP_pressure;BME280_temperature;BME280_humidity;BME280_pressure;Samples;Min_cycle;Max_cycle;Signal;HPM_P1;HPM_P2
2024/02/26 00:02:06;;;;;;;1.60;0.70;;;10.30;99.90;;;;;;4908158;29;20178;-73
2024/02/26 00:04:32;;;;;;;1.70;0.77;;;10.30;99.90;;;;;;4915800;29;20209;-73
2024/02/26 00:06:58;;;;;;;1.40;0.70;;;10.20;99.90;;;;;;4915749;29;20181;-73
2024/02/26 00:09:24;;;;;;;2.00;0.90;;;10.20;99.90;;;;;;4914259;29;20170;-73
2024/02/26 00:11:49;;;;;;;1.70;0.80;;;10.20;99.90;;;;;;4913889;29;20934;-74
2024/02/26 00:14:15;;;;;;;1.60;0.90;;;10.10;99.90;;;;;;4915904;29;20612;-74
2024/02/26 00:16:41;;;;;;;1.50;0.70;;;10.10;99.90;;;;;;4914501;29;20264;-74
2024/02/26 00:19:07;;;;;;;1.95;0.80;;;10.10;99.90;;;;;;4907981;29;20170;-74
2024/02/26 00:21:33;;;;;;;1.70;0.60;;;10.00;99.90;;;;;;4914272;29;20556;-74
2024/02/26 00:23:58;;;;;;;2.17;0.70;;;10.00;99.90;;;;;;4914961;29;21222;-74
2024/02/26 00:26:24;;;;;;;1.40;0.50;;;9.90;99.90;;;;;;4915526;29;20182;-74
2024/02/26 00:28:50;;;;;;;1.60;0.70;;;9.90;99.90;;;;;;4915501;29;20181;-74
2024/02/26 00:31:16;;;;;;;1.60;0.60;;;9.90;99.90;;;;;;4915431;29;20208;-74
2024/02/26 00:33:41;;;;;;;1.50;0.70;;;9.90;99.90;;;;;;4914763;29;20201;-74
2024/02/26 00:36:07;;;;;;;1.50;0.60;;;9.80;99.90;;;;;;4906151;29;20586;-75
2024/02/26 00:38:33;;;;;;;1.40;0.70;;;9.80;99.90;;;;;;4914233;29;20660;-74
2024/02/26 00:40:59;;;;;;;1.70;0.70;;;9.80;99.90;;;;;;4914163;29;20185;-74
2024/02/26 00:43:24;;;;;;;1.40;0.60;;;9.80;99.90;;;;;;4898262;29;20770;-74
2024/02/26 00:45:51;;;;;;;1.83;0.60;;;9.80;99.90;;;;;;4915632;29;20720;-74
2024/02/26 00:48:17;;;;;;;1.83;0.82;;;9.80;99.90;;;;;;4904519;29;20725;-74
2024/02/26 00:50:43;;;;;;;1.43;0.80;;;9.80;99.90;;;;;;4911807;29;20242;-74
2024/02/26 00:53:08;;;;;;;1.60;0.70;;;9.80;99.90;;;;;;4913678;29;20786;-74
2024/02/26 00:55:34;;;;;;;1.40;0.70;;;9.70;99.90;;;;;;4899193;29;20174;-74
2024/02/26 00:58:00;;;;;;;1.40;0.70;;;9.70;99.90;;;;;;4894166;29;20185;-74
2024/02/26 01:00:26;;;;;;;1.70;0.60;;;9.70;99.90;;;;;;4902055;29;20636;-74
2024/02/26 01:02:52;;;;;;;1.57;0.60;;;9.60;99.90;;;;;;4914825;29;20166;-74
2024/02/26 01:05:18;;;;;;;1.47;0.60;;;9.60;99.90;;;;;;4913806;29;20174;-74
2024/02/26 01:07:43;;;;;;;1.20;0.60;;;9.50;99.90;;;;;;4913433;29;20241;-74
2024/02/26 01:10:09;;;;;;;1.30;0.50;;;9.50;99.90;;;;;;4896165;29;20206;-74
2024/02/26 01:12:35;;;;;;;2.30;1.00;;;9.40;99.90;;;;;;4910643;29;20178;-74
2024/02/26 01:15:05;;;;;;;2.28;0.60;;;9.40;99.90;;;;;;4903561;29;20618;-74
2024/02/26 01:17:31;;;;;;;1.55;0.70;;;9.30;99.90;;;;;;4900955;29;20197;-74
2024/02/26 01:19:56;;;;;;;1.40;0.60;;;9.30;99.90;;;;;;4914821;29;20186;-74
2024/02/26 01:22:22;;;;;;;1.40;0.60;;;9.20;99.90;;;;;;4913633;29;20178;-74
2024/02/26 01:24:48;;;;;;;1.40;0.60;;;9.20;99.90;;;;;;4913454;29;20244;-74
2024/02/26 01:27:15;;;;;;;2.17;0.70;;;9.20;99.90;;;;;;4913730;29;20260;-74
2024/02/26 01:29:41;;;;;;;1.40;0.60;;;9.10;99.90;;;;;;4905691;29;20580;-74
2024/02/26 01:32:07;;;;;;;1.70;0.60;;;9.10;99.90;;;;;;4914850;29;20220;-74
2024/02/26 01:34:32;;;;;;;2.30;0.70;;;9.10;99.90;;;;;;4907007;29;20721;-74
2024/02/26 01:36:58;;;;;;;1.30;0.50;;;9.10;99.90;;;;;;4913553;29;20217;-75
2024/02/26 01:39:24;;;;;;;2.33;0.60;;;9.00;99.90;;;;;;4914375;29;20841;-74
2024/02/26 01:41:50;;;;;;;1.57;0.60;;;8.90;99.90;;;;;;4919075;29;20849;-74
2024/02/26 01:44:15;;;;;;;1.50;0.70;;;8.90;99.90;;;;;;4915207;29;20201;-74
2024/02/26 01:46:41;;;;;;;1.50;0.50;;;8.90;99.90;;;;;;4906179;29;20194;-74
2024/02/26 01:49:11;;;;;;;1.30;0.50;;;8.80;99.90;;;;;;4917796;29;20193;-74
2024/02/26 01:51:39;;;;;;;2.35;0.70;;;8.80;99.90;;;;;;4916093;29;20213;-74
2024/02/26 01:54:05;;;;;;;1.70;0.60;;;8.80;99.90;;;;;;4909872;29;20580;-74
2024/02/26 01:56:32;;;;;;;1.65;0.70;;;8.80;99.90;;;;;;4918254;29;20189;-73
2024/02/26 01:58:59;;;;;;;1.70;0.70;;;8.70;99.90;;;;;;4916679;29;20659;-74
2024/02/26 02:01:26;;;;;;;1.50;0.60;;;8.70;99.90;;;;;;4917965;29;20675;-74
2024/02/26 02:03:54;;;;;;;1.40;0.60;;;8.70;99.90;;;;;;4899640;29;20221;-74
2024/02/26 02:06:21;;;;;;;2.65;0.65;;;8.70;99.90;;;;;;4910048;29;20272;-74
2024/02/26 02:08:46;;;;;;;1.67;0.60;;;8.60;99.90;;;;;;4916418;29;20185;-75
2024/02/26 02:11:12;;;;;;;1.30;0.70;;;8.60;99.90;;;;;;4916347;29;20256;-74
2024/02/26 02:13:38;;;;;;;1.27;0.60;;;8.60;99.90;;;;;;4916225;29;20217;-74
2024/02/26 02:16:05;;;;;;;1.47;0.60;;;8.60;99.90;;;;;;4917713;29;20174;-75
2024/02/26 02:18:30;;;;;;;1.50;0.50;;;8.60;99.90;;;;;;4911858;29;20604;-74
2024/02/26 02:20:59;;;;;;;1.87;0.53;;;8.60;99.90;;;;;;4917680;29;20181;-74
2024/02/26 02:23:25;;;;;;;1.48;0.60;;;8.60;99.90;;;;;;4917091;29;20213;-74
2024/02/26 02:25:51;;;;;;;1.40;0.70;;;8.60;99.90;;;;;;4917448;29;20173;-75
2024/02/26 02:28:17;;;;;;;1.50;0.70;;;8.60;99.90;;;;;;4912357;29;20182;-75
2024/02/26 02:30:43;;;;;;;3.10;1.02;;;8.60;99.90;;;;;;4912067;29;20537;-74
2024/02/26 02:33:09;;;;;;;4.90;0.80;;;8.60;99.90;;;;;;4916132;29;20307;-73
2024/02/26 02:35:35;;;;;;;1.67;0.60;;;8.60;99.90;;;;;;4916406;29;20178;-74
2024/02/26 02:38:00;;;;;;;1.63;0.90;;;8.60;99.90;;;;;;4900446;29;20597;-74
2024/02/26 02:40:26;;;;;;;2.20;0.70;;;8.60;99.90;;;;;;4917314;29;20181;-74
2024/02/26 02:42:52;;;;;;;1.77;0.80;;;8.60;99.90;;;;;;4917096;29;20615;-74
2024/02/26 02:45:18;;;;;;;1.40;0.70;;;8.60;99.90;;;;;;4916087;29;20241;-73
2024/02/26 02:47:43;;;;;;;2.13;0.70;;;8.60;99.90;;;;;;4917491;29;20193;-74
2024/02/26 02:50:09;;;;;;;1.50;0.67;;;8.60;99.90;;;;;;4915775;29;20232;-74
2024/02/26 02:52:35;;;;;;;5.40;0.95;;;8.60;99.90;;;;;;4899434;29;20182;-73
2024/02/26 02:55:01;;;;;;;1.30;0.60;;;8.60;99.90;;;;;;4917053;29;20320;-74
2024/02/26 02:57:26;;;;;;;1.80;0.70;;;8.60;99.90;;;;;;4909562;29;20305;-74
2024/02/26 02:59:52;;;;;;;1.90;0.70;;;8.60;99.90;;;;;;4916926;29;20589;-74
2024/02/26 03:02:18;;;;;;;2.27;0.70;;;8.60;99.90;;;;;;4916867;29;20261;-73
2024/02/26 03:04:43;;;;;;;2.13;0.60;;;8.60;99.90;;;;;;4917040;29;20273;-73
2024/02/26 03:07:09;;;;;;;1.70;0.70;;;8.60;99.90;;;;;;4916735;29;20655;-73
2024/02/26 03:09:35;;;;;;;4.77;0.60;;;8.60;99.90;;;;;;4916484;29;20182;-74
2024/02/26 03:12:00;;;;;;;2.00;0.80;;;8.70;99.90;;;;;;4916112;29;20206;-73
2024/02/26 03:14:26;;;;;;;3.33;1.17;;;8.70;99.90;;;;;;4916555;29;20193;-73
2024/02/26 03:16:55;;;;;;;2.20;0.80;;;8.70;99.90;;;;;;4916831;29;20189;-74
2024/02/26 03:19:21;;;;;;;1.70;0.88;;;8.70;99.90;;;;;;4916413;29;20259;-73
2024/02/26 03:21:47;;;;;;;2.20;0.87;;;8.70;99.90;;;;;;4916704;29;20194;-74
2024/02/26 03:24:12;;;;;;;1.57;0.60;;;8.60;99.90;;;;;;4905317;29;20638;-74
2024/02/26 03:26:38;;;;;;;2.53;0.63;;;8.60;99.90;;;;;;4910246;29;20189;-73
2024/02/26 03:29:05;;;;;;;1.40;0.60;;;8.60;99.90;;;;;;4908659;29;20193;-73
2024/02/26 03:31:30;;;;;;;1.75;0.50;;;8.60;99.90;;;;;;4906754;29;21010;-74
2024/02/26 03:33:56;;;;;;;1.40;0.57;;;8.60;99.90;;;;;;4915250;29;20194;-74
2024/02/26 03:36:22;;;;;;;2.60;0.60;;;8.50;99.90;;;;;;4916027;29;20646;-74
2024/02/26 03:38:50;;;;;;;1.63;0.70;;;8.50;99.90;;;;;;4914796;29;20178;-75
2024/02/26 03:41:16;;;;;;;1.52;0.60;;;8.50;99.90;;;;;;4915623;29;20233;-74
2024/02/26 03:43:42;;;;;;;1.30;0.57;;;8.50;99.90;;;;;;4915606;29;20194;-74
2024/02/26 03:46:09;;;;;;;1.37;0.60;;;8.50;99.90;;;;;;4914805;29;20272;-74
2024/02/26 03:48:35;;;;;;;3.65;0.60;;;8.40;99.90;;;;;;4915848;29;20202;-74
2024/02/26 03:51:01;;;;;;;1.30;0.60;;;8.40;99.90;;;;;;4915598;29;20219;-74
2024/02/26 03:53:26;;;;;;;1.30;0.60;;;8.40;99.90;;;;;;4914030;29;20292;-74
2024/02/26 03:55:52;;;;;;;2.00;1.30;;;8.30;99.90;;;;;;4915926;29;20685;-74
2024/02/26 03:58:18;;;;;;;1.20;0.60;;;8.40;99.90;;;;;;4914506;29;20185;-74
2024/02/26 04:00:44;;;;;;;1.50;0.93;;;8.40;99.90;;;;;;4914089;29;20632;-74
2024/02/26 04:03:10;;;;;;;1.40;0.60;;;8.40;99.90;;;;;;4914792;29;20181;-74
2024/02/26 04:05:36;;;;;;;1.58;0.68;;;8.40;99.90;;;;;;4913950;29;20613;-74
2024/02/26 04:08:04;;;;;;;1.30;0.50;;;8.40;99.90;;;;;;4930107;29;20228;-73
2024/02/26 04:10:29;;;;;;;1.67;0.60;;;8.40;99.90;;;;;;4913894;29;20637;-74
2024/02/26 04:12:55;;;;;;;1.90;0.80;;;8.40;99.90;;;;;;4913443;29;20182;-74
2024/02/26 04:15:21;;;;;;;1.40;0.57;;;8.40;99.90;;;;;;4914280;29;20177;-75
2024/02/26 04:17:49;;;;;;;1.40;0.70;;;8.40;99.90;;;;;;4913739;29;20185;-74
2024/02/26 04:20:17;;;;;;;1.30;0.60;;;8.40;99.90;;;;;;4913480;29;20240;-74
2024/02/26 04:22:48;;;;;;;1.35;0.60;;;8.40;99.90;;;;;;4913683;29;20625;-74
2024/02/26 04:25:15;;;;;;;1.83;0.60;;;8.40;99.90;;;;;;4913530;29;20350;-74
2024/02/26 04:27:41;;;;;;;2.85;0.60;;;8.40;99.90;;;;;;4913873;29;20687;-74
2024/02/26 04:30:08;;;;;;;2.05;0.60;;;8.40;99.90;;;;;;4913719;29;20193;-74
2024/02/26 04:32:35;;;;;;;2.10;0.73;;;8.30;99.90;;;;;;4913545;29;20177;-74
2024/02/26 04:35:02;;;;;;;1.20;0.50;;;8.30;99.90;;;;;;4913622;29;20201;-74
2024/02/26 04:37:31;;;;;;;2.22;0.60;;;8.30;99.90;;;;;;4913546;29;20746;-74
2024/02/26 04:40:01;;;;;;;2.78;0.60;;;8.30;99.90;;;;;;4912776;29;20189;-74
2024/02/26 04:42:27;;;;;;;1.30;0.55;;;8.30;99.90;;;;;;4913275;29;20321;-74
2024/02/26 04:44:54;;;;;;;2.17;0.70;;;8.40;99.90;;;;;;4913663;29;20913;-73
2024/02/26 04:47:22;;;;;;;1.30;0.60;;;8.30;99.90;;;;;;4913326;29;20181;-73
2024/02/26 04:49:52;;;;;;;2.20;0.70;;;8.30;99.90;;;;;;4913344;29;20656;-73
2024/02/26 04:52:19;;;;;;;1.35;0.70;;;8.30;99.90;;;;;;4913085;29;20272;-72
2024/02/26 04:54:44;;;;;;;3.28;0.70;;;8.30;99.90;;;;;;4913344;29;20263;-72
2024/02/26 04:57:10;;;;;;;3.40;0.80;;;8.30;99.90;;;;;;4913169;29;20209;-71
2024/02/26 04:59:36;;;;;;;1.40;0.70;;;8.30;99.90;;;;;;4913208;29;20177;-73
2024/02/26 05:02:03;;;;;;;1.98;0.70;;;8.30;99.90;;;;;;4912736;29;20185;-72
2024/02/26 05:04:29;;;;;;;1.60;0.70;;;8.20;99.90;;;;;;4913350;29;20737;-72
2024/02/26 05:06:56;;;;;;;1.80;0.70;;;8.20;99.90;;;;;;4913325;29;20252;-72
2024/02/26 05:09:22;;;;;;;1.40;0.77;;;8.20;99.90;;;;;;4911647;29;20958;-72
2024/02/26 05:11:48;;;;;;;1.33;0.50;;;8.20;99.90;;;;;;4906638;29;20553;-73
2024/02/26 05:14:24;;;;;;;1.52;0.60;;;8.20;99.90;;;;;;4909597;29;20224;-73
2024/02/26 05:16:51;;;;;;;1.40;0.70;;;8.20;99.90;;;;;;4912455;29;20184;-73
2024/02/26 05:19:18;;;;;;;1.70;0.90;;;8.20;99.90;;;;;;4906007;29;20186;-73
2024/02/26 05:21:44;;;;;;;2.03;0.80;;;8.20;99.90;;;;;;4912337;29;20189;-73
2024/02/26 05:24:10;;;;;;;1.47;0.73;;;8.20;99.90;;;;;;4912068;29;20351;-73
2024/02/26 05:26:36;;;;;;;1.90;0.80;;;8.20;99.90;;;;;;4912813;29;20616;-73
2024/02/26 05:29:02;;;;;;;2.43;0.77;;;8.20;99.90;;;;;;4911861;29;20660;-74
2024/02/26 05:31:28;;;;;;;2.20;0.90;;;8.20;99.90;;;;;;4905672;29;20573;-73
2024/02/26 05:33:54;;;;;;;1.60;0.80;;;8.10;99.90;;;;;;4911849;29;20193;-74
2024/02/26 05:36:22;;;;;;;1.60;0.70;;;8.10;99.90;;;;;;4912876;29;20201;-73
2024/02/26 05:38:49;;;;;;;1.40;0.70;;;8.10;99.90;;;;;;4913222;29;20182;-73
2024/02/26 05:41:26;;;;;;;1.50;0.80;;;8.10;99.90;;;;;;4912019;29;20192;-73
2024/02/26 05:43:52;;;;;;;1.33;0.77;;;8.10;99.90;;;;;;4901787;29;20645;-73
2024/02/26 05:46:19;;;;;;;1.42;0.80;;;8.10;99.90;;;;;;4912969;29;20217;-74
2024/02/26 05:48:52;;;;;;;1.60;0.70;;;8.10;99.90;;;;;;4913015;29;20253;-74
2024/02/26 05:51:18;;;;;;;1.92;1.58;;;8.10;99.90;;;;;;4910259;29;20209;-74
2024/02/26 05:53:46;;;;;;;1.60;0.70;;;8.10;99.90;;;;;;4907762;29;20201;-74
2024/02/26 05:56:12;;;;;;;1.45;0.80;;;8.10;99.90;;;;;;4912316;29;20652;-74
2024/02/26 05:58:39;;;;;;;2.65;0.80;;;8.10;99.90;;;;;;4913010;29;20232;-74
2024/02/26 06:01:05;;;;;;;1.93;0.60;;;8.10;99.90;;;;;;4914057;29;20696;-74
2024/02/26 06:03:32;;;;;;;2.30;0.80;;;8.10;99.90;;;;;;4912443;29;20252;-74
2024/02/26 06:05:59;;;;;;;2.65;0.68;;;8.10;99.90;;;;;;4906361;29;20197;-74
2024/02/26 06:08:30;;;;;;;2.13;0.70;;;8.10;99.90;;;;;;4905793;29;20543;-75
2024/02/26 06:10:57;;;;;;;3.13;0.80;;;8.10;99.90;;;;;;4912424;29;20206;-74
2024/02/26 06:13:23;;;;;;;1.70;0.80;;;8.10;99.90;;;;;;4912075;29;20687;-75
2024/02/26 06:15:49;;;;;;;1.87;0.80;;;8.10;99.90;;;;;;4912482;29;20280;-75
2024/02/26 06:18:15;;;;;;;1.57;0.70;;;8.10;99.90;;;;;;4920464;29;20725;-75
2024/02/26 06:20:41;;;;;;;2.42;0.80;;;8.20;99.90;;;;;;4912790;29;20654;-75
2024/02/26 06:23:07;;;;;;;1.37;0.83;;;8.20;99.90;;;;;;4912124;29;20189;-75
2024/02/26 06:25:32;;;;;;;1.43;0.80;;;8.10;99.90;;;;;;4912714;29;20669;-75
2024/02/26 06:27:58;;;;;;;1.60;0.90;;;8.20;99.90;;;;;;4915381;29;20696;-75
2024/02/26 06:30:24;;;;;;;1.40;0.80;;;8.20;99.90;;;;;;4915941;29;20641;-75
2024/02/26 06:32:50;;;;;;;1.50;0.77;;;8.10;99.90;;;;;;4915788;29;20177;-74
2024/02/26 06:35:15;;;;;;;1.30;0.80;;;8.20;99.90;;;;;;4917238;29;20613;-76
2024/02/26 06:37:41;;;;;;;1.30;0.70;;;8.20;99.90;;;;;;4916092;29;20178;-75
2024/02/26 06:40:08;;;;;;;2.33;0.77;;;8.10;99.90;;;;;;4915348;29;20189;-75
2024/02/26 06:42:33;;;;;;;1.88;0.70;;;8.20;99.90;;;;;;4892873;29;20526;-75
2024/02/26 06:45:00;;;;;;;2.30;1.00;;;8.20;99.90;;;;;;4915410;29;20193;-75
2024/02/26 06:47:27;;;;;;;3.88;1.00;;;8.20;99.90;;;;;;4896672;29;20175;-75
2024/02/26 06:49:53;;;;;;;2.30;1.00;;;8.20;99.90;;;;;;4923382;29;20195;-77
2024/02/26 06:52:19;;;;;;;1.70;0.95;;;8.20;99.90;;;;;;4913712;29;20687;-78
2024/02/26 06:54:48;;;;;;;1.90;0.85;;;8.20;99.90;;;;;;4899341;29;20220;-78
2024/02/26 06:57:13;;;;;;;3.08;0.90;;;8.20;99.90;;;;;;4914735;29;20197;-76
2024/02/26 06:59:40;;;;;;;1.60;1.07;;;8.20;99.90;;;;;;4914966;29;20186;-76
2024/02/26 07:02:05;;;;;;;2.28;0.90;;;8.20;99.90;;;;;;4913872;29;20189;-77
2024/02/26 07:04:33;;;;;;;1.80;1.10;;;8.10;99.90;;;;;;4916296;29;20197;-77
2024/02/26 07:07:01;;;;;;;1.88;1.00;;;8.10;99.90;;;;;;4914937;29;20189;-77
2024/02/26 07:09:27;;;;;;;2.30;1.40;;;8.10;99.90;;;;;;4899081;29;20174;-77
2024/02/26 07:11:52;;;;;;;2.20;1.30;;;8.10;99.90;;;;;;4914330;29;20637;-76
2024/02/26 07:14:18;;;;;;;1.60;1.13;;;8.10;99.90;;;;;;4914787;29;20571;-76
2024/02/26 07:16:44;;;;;;;4.27;1.40;;;8.10;99.90;;;;;;4913661;29;20644;-76
2024/02/26 07:19:10;;;;;;;2.70;0.90;;;8.10;99.90;;;;;;4914485;29;20204;-76
2024/02/26 07:21:36;;;;;;;2.13;1.10;;;8.10;99.90;;;;;;4915800;29;20194;-75
2024/02/26 07:24:02;;;;;;;1.60;0.90;;;8.10;99.90;;;;;;4913775;29;20648;-76
2024/02/26 07:26:30;;;;;;;2.05;1.00;;;8.10;99.90;;;;;;4914331;29;20597;-75
2024/02/26 07:28:56;;;;;;;2.10;1.00;;;8.10;99.90;;;;;;4914754;29;20288;-75
2024/02/26 07:31:22;;;;;;;1.90;1.30;;;8.10;99.90;;;;;;4942903;23;20319;-79
2024/02/26 07:33:48;;;;;;;1.90;1.20;;;8.10;99.90;;;;;;4935935;29;20632;-79
2024/02/26 07:36:13;;;;;;;3.00;1.27;;;8.10;99.90;;;;;;4920084;29;20208;-80
2024/02/26 07:38:39;;;;;;;2.83;1.20;;;8.10;99.90;;;;;;4933744;29;20658;-79
2024/02/26 07:41:05;;;;;;;2.47;1.20;;;8.10;99.90;;;;;;4918305;29;20597;-79
2024/02/26 07:43:32;;;;;;;1.80;1.02;;;8.10;99.90;;;;;;4918461;29;20232;-80
2024/02/26 07:45:58;;;;;;;5.00;1.20;;;8.10;99.90;;;;;;4918514;29;20647;-79
2024/02/26 07:48:24;;;;;;;1.85;0.93;;;8.10;99.90;;;;;;4934414;29;21166;-80
2024/02/26 07:50:51;;;;;;;2.50;1.05;;;8.20;99.90;;;;;;4925627;29;20228;-79
2024/02/26 07:53:17;;;;;;;1.80;0.90;;;8.20;99.90;;;;;;4917975;29;20548;-80
2024/02/26 07:55:43;;;;;;;1.50;0.85;;;8.20;99.90;;;;;;4918150;29;20181;-81
2024/02/26 07:58:09;;;;;;;2.60;0.87;;;8.20;99.90;;;;;;4933813;29;20705;-80
2024/02/26 08:00:35;;;;;;;2.73;0.80;;;8.20;99.90;;;;;;4934445;29;20252;-79
2024/02/26 08:03:03;;;;;;;3.28;1.10;;;8.20;99.90;;;;;;4933526;29;21077;-74
2024/02/26 08:05:29;;;;;;;1.80;0.88;;;8.20;99.90;;;;;;4917596;29;20184;-75
2024/02/26 08:07:56;;;;;;;2.25;1.05;;;8.20;99.90;;;;;;4933032;29;20181;-75
2024/02/26 08:10:22;;;;;;;1.77;1.08;;;8.20;99.90;;;;;;4933215;29;20220;-72
2024/02/26 08:12:48;;;;;;;1.90;1.10;;;8.10;99.90;;;;;;4917395;29;20181;-73
2024/02/26 08:15:13;;;;;;;2.50;1.10;;;8.10;99.90;;;;;;4932935;29;20194;-73
2024/02/26 08:17:39;;;;;;;2.97;0.90;;;8.10;99.90;;;;;;4934278;29;20577;-74
2024/02/26 08:20:06;;;;;;;2.60;1.00;;;8.10;99.90;;;;;;4901497;29;20193;-74
2024/02/26 08:22:33;;;;;;;2.10;0.90;;;8.10;99.90;;;;;;4916596;29;20608;-74
2024/02/26 08:24:59;;;;;;;1.90;0.80;;;8.20;99.90;;;;;;4917518;29;20192;-74
2024/02/26 08:27:26;;;;;;;1.50;0.90;;;8.10;99.90;;;;;;4933900;29;20216;-73
2024/02/26 08:29:52;;;;;;;1.50;0.90;;;8.10;99.90;;;;;;4932802;29;20173;-74
2024/02/26 08:32:17;;;;;;;1.60;0.93;;;8.10;99.90;;;;;;4932904;29;20209;-73
2024/02/26 08:34:43;;;;;;;1.85;0.88;;;8.10;99.90;;;;;;4932955;29;20180;-73
2024/02/26 08:37:09;;;;;;;2.13;0.90;;;8.20;99.90;;;;;;4932792;29;20197;-73
2024/02/26 08:39:35;;;;;;;1.70;0.85;;;8.20;99.90;;;;;;4916834;29;21050;-73
2024/02/26 08:42:02;;;;;;;1.88;1.17;;;8.20;99.90;;;;;;4932461;29;20261;-73
2024/02/26 08:44:28;;;;;;;2.05;1.27;;;8.20;99.90;;;;;;4920380;29;20196;-81
2024/02/26 08:46:53;;;;;;;1.57;0.90;;;8.20;99.90;;;;;;4918032;29;20835;-81
2024/02/26 08:49:19;;;;;;;3.07;1.20;;;8.20;99.90;;;;;;4920747;29;20197;-81
2024/02/26 08:51:45;;;;;;;2.38;1.00;;;8.20;99.90;;;;;;4918982;29;20299;-80
2024/02/26 08:54:11;;;;;;;2.67;1.00;;;8.20;99.90;;;;;;4935281;29;20632;-80
2024/02/26 08:56:37;;;;;;;1.83;0.90;;;8.20;99.90;;;;;;4933816;29;20216;-80
2024/02/26 08:59:03;;;;;;;2.20;1.00;;;8.20;99.90;;;;;;4916598;29;20219;-80
2024/02/26 09:01:32;;;;;;;1.90;1.60;;;8.20;99.90;;;;;;4916553;29;20212;-80
2024/02/26 09:03:58;;;;;;;2.38;1.30;;;8.20;99.90;;;;;;4933333;29;20201;-79
2024/02/26 09:06:24;;;;;;;2.57;1.30;;;8.20;99.90;;;;;;4916448;29;20208;-80
2024/02/26 09:08:50;;;;;;;2.87;1.53;;;8.20;99.90;;;;;;4933578;29;20177;-80
2024/02/26 09:11:16;;;;;;;2.60;1.03;;;8.20;99.90;;;;;;4934195;29;20273;-81
2024/02/26 09:13:43;;;;;;;2.30;1.15;;;8.20;99.90;;;;;;4934985;29;20604;-81
2024/02/26 09:16:08;;;;;;;1.43;0.87;;;8.20;99.90;;;;;;4917662;29;20668;-80
2024/02/26 09:18:35;;;;;;;2.53;1.30;;;8.20;99.90;;;;;;4933735;29;21201;-81
2024/02/26 09:21:04;;;;;;;2.47;1.20;;;8.20;99.90;;;;;;4934776;29;20216;-81
2024/02/26 09:23:31;;;;;;;2.30;1.00;;;8.20;99.90;;;;;;4923380;29;20185;-80
2024/02/26 09:25:57;;;;;;;2.37;0.90;;;8.20;99.90;;;;;;4930861;29;20184;-80
2024/02/26 09:28:22;;;;;;;2.00;1.00;;;8.20;99.90;;;;;;4932501;29;20554;-82
2024/02/26 09:30:49;;;;;;;2.60;1.50;;;8.20;99.90;;;;;;4937770;29;20720;-80
2024/02/26 09:33:15;;;;;;;1.77;1.00;;;8.20;99.90;;;;;;4949377;29;20196;-82
2024/02/26 09:35:41;;;;;;;3.17;1.42;;;8.10;99.90;;;;;;4931982;29;20180;-83
2024/02/26 09:38:08;;;;;;;2.70;1.40;;;8.10;99.90;;;;;;4949307;29;20177;-82
2024/02/26 09:40:35;;;;;;;1.93;1.10;;;8.10;99.90;;;;;;4950625;29;20224;-81
2024/02/26 09:43:04;;;;;;;2.85;1.85;;;8.10;99.90;;;;;;4938450;29;20627;-81
2024/02/26 09:45:32;;;;;;;2.38;1.00;;;8.10;99.90;;;;;;4949343;29;20248;-83
2024/02/26 09:47:58;;;;;;;2.10;1.10;;;8.20;99.90;;;;;;4950154;28;20209;-81
2024/02/26 09:50:24;;;;;;;2.30;1.40;;;8.20;99.90;;;;;;4930071;29;20618;-82
2024/02/26 09:52:51;;;;;;;2.87;1.77;;;8.20;99.90;;;;;;4917862;29;20941;-74
2024/02/26 09:55:19;;;;;;;2.53;1.33;;;8.20;99.90;;;;;;4932876;29;21141;-75
2024/02/26 09:57:51;;;;;;;5.03;1.20;;;8.20;99.90;;;;;;4931380;29;20177;-74
2024/02/26 10:00:21;;;;;;;3.08;1.58;;;8.20;99.90;;;;;;4902292;29;20221;-73
2024/02/26 10:02:48;;;;;;;1.60;0.90;;;8.10;99.90;;;;;;4934627;29;20241;-75
2024/02/26 10:05:18;;;;;;;2.10;1.00;;;8.10;99.90;;;;;;4935070;29;20181;-72
2024/02/26 10:07:44;;;;;;;3.10;1.20;;;8.20;99.90;;;;;;4912046;29;20531;-73
2024/02/26 10:10:10;;;;;;;1.85;1.13;;;8.20;99.90;;;;;;4934637;29;20252;-73
2024/02/26 10:12:36;;;;;;;2.17;1.20;;;8.20;99.90;;;;;;4934547;29;20816;-74
2024/02/26 10:15:02;;;;;;;1.87;1.13;;;8.30;99.90;;;;;;4942913;29;20608;-73
2024/02/26 10:17:28;;;;;;;2.03;1.20;;;8.30;99.90;;;;;;4934537;29;20173;-73
2024/02/26 10:19:56;;;;;;;3.70;1.80;;;8.30;99.90;;;;;;4934191;29;20877;-73
2024/02/26 10:22:22;;;;;;;2.35;1.25;;;8.30;99.90;;;;;;4918426;29;20173;-74
2024/02/26 10:24:48;;;;;;;1.83;0.98;;;8.30;99.90;;;;;;4935037;29;20180;-74
2024/02/26 10:27:15;;;;;;;2.92;1.48;;;8.30;99.90;;;;;;4935472;29;20169;-74
2024/02/26 10:29:42;;;;;;;2.67;1.30;;;8.30;99.90;;;;;;4927630;29;20259;-74
2024/02/26 10:32:09;;;;;;;4.32;1.40;;;8.40;99.90;;;;;;4934718;29;20566;-73
2024/02/26 10:34:37;;;;;;;1.80;1.25;;;8.40;99.90;;;;;;4927507;29;20176;-76
2024/02/26 10:37:05;;;;;;;2.20;1.10;;;8.40;99.90;;;;;;4935261;29;20169;-73
2024/02/26 10:39:31;;;;;;;2.05;1.50;;;8.50;99.90;;;;;;4934676;29;20251;-73
2024/02/26 10:41:56;;;;;;;1.73;1.03;;;8.50;99.90;;;;;;4934644;29;20280;-73
2024/02/26 10:44:22;;;;;;;3.20;1.37;;;8.60;99.90;;;;;;4918756;29;20185;-74
2024/02/26 10:46:51;;;;;;;2.93;1.67;;;8.70;99.90;;;;;;4926707;29;20209;-73
2024/02/26 10:49:19;;;;;;;2.85;1.40;;;8.80;99.90;;;;;;4934537;29;20185;-74
2024/02/26 10:51:50;;;;;;;3.00;1.80;;;8.90;99.90;;;;;;4918643;29;20215;-73
2024/02/26 10:54:16;;;;;;;3.13;1.58;;;9.00;99.90;;;;;;4918843;29;20225;-73
2024/02/26 10:56:43;;;;;;;1.80;1.10;;;9.10;99.90;;;;;;4934254;29;20173;-74
2024/02/26 10:59:12;;;;;;;2.30;1.30;;;9.20;99.90;;;;;;4934423;29;20181;-73
2024/02/26 11:01:41;;;;;;;2.60;1.40;;;9.20;99.90;;;;;;4933823;29;20296;-73
2024/02/26 11:04:08;;;;;;;2.20;1.27;;;9.30;99.90;;;;;;4933785;29;20591;-73
2024/02/26 11:06:35;;;;;;;4.82;2.28;;;9.30;99.90;;;;;;4935139;29;20256;-73
2024/02/26 11:09:03;;;;;;;5.85;2.70;;;9.30;99.90;;;;;;4917881;29;20205;-73
2024/02/26 11:11:34;;;;;;;5.32;2.35;;;9.30;99.90;;;;;;4934204;29;20219;-73
2024/02/26 11:14:03;;;;;;;5.10;2.35;;;9.30;99.90;;;;;;4934140;29;20575;-73
2024/02/26 11:16:29;;;;;;;2.72;1.80;;;9.40;99.90;;;;;;4934225;29;20532;-73
2024/02/26 11:18:57;;;;;;;3.38;1.65;;;9.50;99.90;;;;;;4933973;29;20236;-73
2024/02/26 11:21:44;;;;;;;2.50;1.25;;;9.50;99.90;;;;;;4919814;29;20197;-73
2024/02/26 11:24:13;;;;;;;2.85;1.60;;;9.60;99.90;;;;;;4918485;29;20761;-73
2024/02/26 11:26:58;;;;;;;2.00;1.30;;;9.60;99.90;;;;;;4937488;29;20192;-74
2024/02/26 11:29:28;;;;;;;2.05;1.60;;;9.60;99.90;;;;;;4933789;29;20180;-73
2024/02/26 11:31:54;;;;;;;2.33;1.17;;;9.70;99.90;;;;;;4933519;29;20205;-73
2024/02/26 11:34:20;;;;;;;3.93;1.50;;;9.70;99.90;;;;;;4934113;29;20174;-73
2024/02/26 11:36:46;;;;;;;3.88;1.83;;;9.70;99.90;;;;;;4927504;29;20538;-73
2024/02/26 11:39:14;;;;;;;3.60;1.90;;;9.80;99.90;;;;;;4933607;29;20263;-73
2024/02/26 11:41:40;;;;;;;3.00;1.83;;;9.80;99.90;;;;;;4915792;29;20197;-73
2024/02/26 11:44:07;;;;;;;3.03;1.77;;;9.90;99.90;;;;;;4925532;29;20333;-73
2024/02/26 11:46:38;;;;;;;4.40;1.90;;;9.90;99.90;;;;;;4930680;29;20600;-73
2024/02/26 11:49:24;;;;;;;3.17;1.75;;;10.00;99.90;;;;;;4917100;29;20679;-73
2024/02/26 11:51:54;;;;;;;3.30;1.55;;;10.00;99.90;;;;;;4932537;29;20209;-73
2024/02/26 11:54:47;;;;;;;3.75;1.95;;;10.00;99.90;;;;;;4933085;29;20165;-73
2024/02/26 11:57:38;;;;;;;3.95;1.90;;;9.90;99.90;;;;;;4929534;29;20180;-73
2024/02/26 12:00:07;;;;;;;2.80;1.40;;;10.00;99.90;;;;;;4932789;29;20189;-74
2024/02/26 12:02:40;;;;;;;2.83;1.60;;;10.00;99.90;;;;;;4931906;29;20181;-73
2024/02/26 12:05:17;;;;;;;2.55;1.60;;;10.00;99.90;;;;;;4932941;29;20181;-73
2024/02/26 12:07:53;;;;;;;3.10;1.83;;;10.00;99.90;;;;;;4933384;29;20184;-74
2024/02/26 12:10:26;;;;;;;2.30;1.30;;;10.00;99.90;;;;;;4934011;29;20224;-72
2024/02/26 12:12:59;;;;;;;2.33;1.60;;;10.00;99.90;;;;;;4933455;29;20204;-72
2024/02/26 12:15:30;;;;;;;2.40;1.65;;;9.90;99.90;;;;;;4935421;29;20204;-73
2024/02/26 12:17:56;;;;;;;2.20;1.30;;;10.00;99.90;;;;;;4939631;29;20173;-73
2024/02/26 12:20:22;;;;;;;3.23;1.70;;;10.00;99.90;;;;;;4923339;29;20502;-72
2024/02/26 12:22:52;;;;;;;2.50;1.50;;;10.10;99.90;;;;;;4939577;29;20949;-73
2024/02/26 12:25:22;;;;;;;2.35;1.60;;;10.20;99.90;;;;;;4937017;29;20686;-73
2024/02/26 12:27:48;;;;;;;3.90;1.67;;;10.20;99.90;;;;;;4933168;29;20181;-74
2024/02/26 12:30:14;;;;;;;2.42;1.98;;;10.20;99.90;;;;;;4932637;29;20630;-73
2024/02/26 12:32:40;;;;;;;4.20;1.90;;;10.30;99.90;;;;;;4934043;29;20181;-73
2024/02/26 12:35:06;;;;;;;4.20;2.10;;;10.20;99.90;;;;;;4932902;29;20173;-73
2024/02/26 12:37:32;;;;;;;2.05;1.38;;;10.20;99.90;;;;;;4933133;29;20604;-73
2024/02/26 12:39:58;;;;;;;2.37;1.37;;;10.10;99.90;;;;;;4932617;29;20197;-73
2024/02/26 12:42:24;;;;;;;2.40;1.50;;;10.10;99.90;;;;;;4916358;29;21186;-73
2024/02/26 12:44:51;;;;;;;3.43;2.10;;;10.10;99.90;;;;;;4932459;29;20192;-73
2024/02/26 12:47:18;;;;;;;2.67;1.60;;;10.10;99.90;;;;;;4932298;29;20581;-72
2024/02/26 12:49:47;;;;;;;2.38;1.75;;;10.00;99.90;;;;;;4932452;29;20692;-74
2024/02/26 12:52:13;;;;;;;2.70;1.50;;;10.00;99.90;;;;;;4925948;29;20599;-73
2024/02/26 12:54:40;;;;;;;3.90;1.67;;;10.00;99.90;;;;;;4930975;29;20187;-73